createdAt,value
2022-10-14T00:01:27.137Z,4.50
2022-10-14T00:03:56.646Z,4.45
2022-10-14T00:06:27.732Z,4.32
2022-10-14T00:08:57.707Z,4.78
2022-10-14T00:11:29.321Z,4.60
2022-10-14T00:14:00.191Z,4.95
2022-10-14T00:16:34.108Z,4.68
2022-10-14T00:19:03.214Z,5.55
2022-10-14T00:21:32.432Z,4.85
2022-10-14T00:24:01.148Z,5.05
2022-10-14T00:26:32.610Z,5.00
2022-10-14T00:29:02.460Z,4.68
2022-10-14T00:31:32.957Z,4.88
2022-10-14T00:34:01.819Z,5.30
2022-10-14T00:36:30.277Z,5.60
2022-10-14T00:38:59.231Z,5.50
2022-10-14T00:41:30.285Z,4.72
2022-10-14T00:44:02.917Z,4.53
2022-10-14T00:46:37.121Z,4.85
2022-10-14T00:49:10.223Z,4.45
2022-10-14T00:51:40.702Z,4.80
2022-10-14T00:54:09.397Z,4.93
2022-10-14T00:56:38.602Z,4.80
2022-10-14T00:59:07.875Z,5.45
2022-10-14T01:01:38.841Z,5.20
2022-10-14T01:04:07.296Z,4.68
2022-10-14T01:06:46.941Z,5.07
2022-10-14T01:09:28.489Z,4.82
2022-10-14T01:12:28.004Z,4.85
2022-10-14T01:15:08.845Z,4.80
2022-10-14T01:17:50.797Z,4.30
2022-10-14T01:20:43.130Z,4.80
2022-10-14T01:24:24.218Z,4.88
2022-10-14T01:27:12.754Z,4.80
2022-10-14T01:30:08.664Z,4.80
2022-10-14T01:32:48.286Z,4.55
2022-10-14T01:35:26.076Z,4.90
2022-10-14T01:38:04.858Z,5.55
2022-10-14T01:40:38.288Z,4.28
2022-10-14T01:43:07.700Z,5.57
2022-10-14T01:45:40.280Z,5.57
2022-10-14T01:48:09.450Z,5.07
2022-10-14T01:50:39.806Z,5.18
2022-10-14T01:53:14.450Z,4.47
2022-10-14T01:55:47.532Z,4.82
2022-10-14T01:58:19.099Z,5.18
2022-10-14T02:00:49.323Z,4.82
2022-10-14T02:03:18.189Z,4.88
2022-10-14T02:05:52.995Z,4.10
2022-10-14T02:08:31.570Z,4.55
2022-10-14T02:11:09.957Z,4.57
2022-10-14T02:13:53.078Z,4.88
2022-10-14T02:16:34.558Z,4.40
2022-10-14T02:19:10.664Z,5.20
2022-10-14T02:21:43.984Z,4.93
2022-10-14T02:24:20.777Z,5.35
2022-10-14T02:26:51.422Z,4.97
2022-10-14T02:29:21.156Z,4.57
2022-10-14T02:31:52.203Z,4.70
2022-10-14T02:34:23.694Z,4.68
2022-10-14T02:36:53.615Z,4.53
2022-10-14T02:39:28.506Z,4.90
2022-10-14T02:41:57.185Z,5.07
2022-10-14T02:44:25.668Z,4.78
2022-10-14T02:46:56.826Z,4.53
2022-10-14T02:49:25.366Z,4.95
2022-10-14T02:51:53.654Z,4.95
2022-10-14T02:54:22.070Z,5.38
2022-10-14T02:56:50.379Z,4.57
2022-10-14T02:59:19.820Z,4.28
2022-10-14T03:01:48.234Z,4.45
2022-10-14T03:04:17.911Z,5.18
2022-10-14T03:06:46.223Z,4.85
2022-10-14T03:09:14.748Z,4.97
2022-10-14T03:11:43.051Z,4.63
2022-10-14T03:14:11.396Z,4.68
2022-10-14T03:16:39.893Z,4.65
2022-10-14T03:19:08.258Z,4.57
2022-10-14T03:21:37.993Z,4.68
2022-10-14T03:24:08.341Z,4.78
2022-10-14T03:26:37.766Z,5.20
2022-10-14T03:29:06.076Z,5.40
2022-10-14T03:31:36.511Z,5.13
2022-10-14T03:34:04.822Z,5.70
2022-10-14T03:36:33.189Z,6.22
2022-10-14T03:39:07.478Z,7.00
2022-10-14T03:41:35.883Z,6.47
2022-10-14T03:44:04.522Z,6.30
2022-10-14T03:46:32.860Z,6.35
2022-10-14T03:49:01.202Z,6.85
2022-10-14T03:51:29.575Z,6.70
2022-10-14T03:53:58.334Z,6.70
2022-10-14T03:56:28.078Z,6.72
2022-10-14T03:58:56.433Z,7.28
2022-10-14T04:01:24.914Z,6.57
2022-10-14T04:03:53.249Z,7.13
2022-10-14T04:06:21.628Z,6.28
2022-10-14T04:08:50.014Z,5.63
2022-10-14T04:11:18.497Z,6.50
2022-10-14T04:13:48.236Z,7.45
2022-10-14T04:16:16.905Z,6.72
2022-10-14T04:18:45.321Z,8.40
2022-10-14T04:21:14.335Z,7.57
2022-10-14T04:23:43.295Z,7.10
2022-10-14T04:26:12.037Z,7.38
2022-10-14T04:28:40.919Z,7.65
2022-10-14T04:31:10.923Z,7.47
2022-10-14T04:33:39.329Z,7.55
2022-10-14T04:36:09.430Z,7.18
2022-10-14T04:38:37.921Z,7.60
2022-10-14T04:41:06.880Z,7.30
2022-10-14T04:43:35.334Z,7.63
2022-10-14T04:46:03.855Z,7.25
2022-10-14T04:48:33.701Z,7.05
2022-10-14T04:51:02.103Z,7.10
2022-10-14T04:53:32.604Z,7.15
2022-10-14T04:56:02.917Z,6.70
2022-10-14T04:58:34.156Z,7.80
2022-10-14T05:01:02.766Z,7.43
2022-10-14T05:03:31.631Z,7.00
2022-10-14T05:06:01.834Z,6.95
2022-10-14T05:08:30.287Z,7.32
2022-10-14T05:10:59.014Z,7.57
2022-10-14T05:13:27.524Z,6.53
2022-10-14T05:15:56.333Z,7.05
2022-10-14T05:18:24.734Z,6.85
2022-10-14T05:20:53.583Z,6.35
2022-10-14T05:23:23.481Z,6.40
2022-10-14T05:25:53.494Z,6.85
2022-10-14T05:28:22.594Z,6.80
2022-10-14T05:30:51.084Z,5.68
2022-10-14T05:33:19.989Z,6.70
2022-10-14T05:36:04.119Z,6.88
2022-10-14T05:38:34.928Z,6.60
2022-10-14T05:41:03.484Z,7.00
2022-10-14T05:43:32.847Z,7.63
2022-10-14T05:46:02.260Z,6.88
2022-10-14T05:48:31.310Z,6.95
2022-10-14T05:51:02.307Z,7.22
2022-10-14T05:53:32.390Z,6.20
2022-10-14T05:56:07.424Z,6.25
2022-10-14T05:58:36.629Z,6.40
2022-10-14T06:01:08.621Z,6.22
2022-10-14T06:03:38.171Z,6.93
2022-10-14T06:06:07.062Z,7.00
2022-10-14T06:08:35.529Z,7.43
2022-10-14T06:11:06.301Z,6.72
2022-10-14T06:13:34.788Z,6.85
2022-10-14T06:16:05.606Z,6.80
2022-10-14T06:18:34.582Z,7.30
2022-10-14T06:21:03.323Z,7.10
2022-10-14T06:23:31.919Z,6.95
2022-10-14T06:26:00.280Z,6.57
2022-10-14T06:28:30.335Z,7.07
2022-10-14T06:30:58.681Z,5.75
2022-10-14T06:33:29.873Z,6.03
2022-10-14T06:35:58.541Z,5.18
2022-10-14T06:38:26.998Z,5.65
2022-10-14T06:40:56.050Z,5.85
2022-10-14T06:43:24.844Z,6.00
2022-10-14T06:45:54.997Z,5.85
2022-10-14T06:48:23.324Z,6.00
2022-10-14T06:50:51.655Z,4.88
2022-10-14T06:53:20.060Z,5.40
2022-10-14T06:55:48.560Z,4.85
2022-10-14T06:58:16.868Z,5.03
2022-10-14T07:00:48.075Z,4.28
2022-10-14T07:03:17.993Z,4.65
2022-10-14T07:05:47.246Z,4.55
2022-10-14T07:08:15.882Z,5.38
2022-10-14T07:10:44.521Z,4.03
2022-10-14T07:13:12.798Z,4.55
2022-10-14T07:15:41.398Z,5.15
2022-10-14T07:18:10.000Z,4.35
2022-10-14T07:20:39.736Z,4.25
2022-10-14T07:23:09.184Z,3.63
2022-10-14T07:25:37.986Z,3.60
2022-10-14T07:28:06.903Z,4.43
2022-10-14T07:30:35.788Z,3.80
2022-10-14T07:33:04.440Z,4.00
2022-10-14T07:35:32.826Z,3.80
2022-10-14T07:38:02.714Z,3.85
2022-10-14T07:40:31.319Z,3.35
2022-10-14T07:42:59.944Z,3.78
2022-10-14T07:45:30.724Z,3.50
2022-10-14T07:47:59.015Z,3.78
2022-10-14T07:50:27.581Z,3.90
2022-10-14T07:53:00.284Z,3.95
2022-10-14T07:55:31.035Z,3.95
2022-10-14T07:57:59.505Z,3.58
2022-10-14T08:00:28.043Z,3.97
2022-10-14T08:02:56.503Z,3.47
2022-10-14T08:05:37.711Z,3.50
2022-10-14T08:08:07.111Z,3.65
2022-10-14T08:10:37.239Z,3.15
2022-10-14T08:13:07.074Z,4.18
2022-10-14T08:15:39.622Z,3.72
2022-10-14T08:18:09.368Z,3.25
2022-10-14T08:20:38.170Z,3.35
2022-10-14T08:23:06.595Z,3.40
2022-10-14T08:25:37.906Z,3.80
2022-10-14T08:28:06.359Z,3.92
2022-10-14T08:30:34.902Z,4.03
2022-10-14T08:33:03.251Z,3.60
2022-10-14T08:35:31.664Z,3.67
2022-10-14T08:38:01.709Z,3.70
2022-10-14T08:40:32.476Z,3.95
2022-10-14T08:43:07.030Z,4.15
2022-10-14T08:45:40.636Z,3.95
2022-10-14T08:48:17.569Z,3.88
2022-10-14T08:50:52.222Z,3.70
2022-10-14T08:53:24.287Z,3.70
2022-10-14T08:55:56.395Z,3.40
2022-10-14T08:58:31.855Z,3.67
2022-10-14T09:01:09.859Z,3.70
2022-10-14T09:03:41.108Z,4.63
2022-10-14T09:06:16.067Z,5.18
2022-10-14T09:08:48.352Z,5.20
2022-10-14T09:11:20.665Z,5.43
2022-10-14T09:13:54.643Z,5.18
2022-10-14T09:16:25.880Z,5.20
2022-10-14T09:18:56.900Z,5.32
2022-10-14T09:21:40.854Z,5.75
2022-10-14T09:24:20.383Z,6.35
2022-10-14T09:26:52.847Z,5.68
2022-10-14T09:29:38.751Z,8.80
2022-10-14T09:32:10.753Z,5.93
2022-10-14T09:34:42.567Z,10.07
2022-10-14T09:37:31.747Z,6.28
2022-10-14T09:40:04.578Z,6.00
2022-10-14T09:42:45.821Z,7.30
2022-10-14T09:45:17.888Z,6.93
2022-10-14T09:47:56.337Z,8.13
2022-10-14T09:50:28.984Z,6.18
2022-10-14T09:53:04.326Z,5.97
2022-10-14T09:55:34.307Z,6.22
2022-10-14T09:58:07.303Z,6.20
2022-10-14T10:00:38.903Z,6.10
2022-10-14T10:03:08.118Z,6.57
2022-10-14T10:05:37.715Z,6.22
2022-10-14T10:08:17.721Z,6.10
2022-10-14T10:11:03.736Z,5.85
2022-10-14T10:13:44.479Z,5.82
2022-10-14T10:16:26.375Z,6.00
2022-10-14T10:18:57.249Z,5.60
2022-10-14T10:21:30.075Z,5.22
2022-10-14T10:24:01.295Z,5.45
2022-10-14T10:26:33.359Z,5.07
2022-10-14T10:29:04.724Z,5.15
2022-10-14T10:32:10.179Z,4.03
2022-10-14T10:35:02.795Z,4.82
2022-10-14T10:37:34.528Z,4.40
2022-10-14T10:40:37.116Z,4.38
2022-10-14T10:43:39.567Z,4.30
2022-10-14T10:46:29.803Z,3.90
2022-10-14T10:49:07.326Z,3.85
2022-10-14T10:51:44.997Z,3.60
2022-10-14T10:54:31.486Z,4.35
2022-10-14T10:57:08.797Z,3.90
2022-10-14T10:59:58.523Z,3.88
2022-10-14T11:02:55.970Z,3.05
2022-10-14T11:05:43.696Z,2.75
2022-10-14T11:08:52.303Z,3.42
2022-10-14T11:11:45.447Z,2.83
2022-10-14T11:14:46.369Z,3.05
2022-10-14T11:17:26.583Z,3.05
2022-10-14T11:20:01.824Z,2.42
2022-10-14T11:22:52.305Z,3.03
2022-10-14T11:25:27.561Z,2.90
2022-10-14T11:28:10.513Z,3.08
2022-10-14T11:30:47.484Z,2.30
2022-10-14T11:33:37.397Z,3.30
2022-10-14T11:36:23.437Z,2.70
2022-10-14T11:39:10.342Z,2.97
2022-10-14T11:42:01.491Z,2.88
2022-10-14T11:47:14.225Z,2.83
2022-10-14T11:49:49.146Z,3.20
2022-10-14T11:52:27.624Z,3.00
2022-10-14T11:55:02.827Z,3.10
2022-10-14T11:57:36.822Z,3.67
2022-10-14T12:00:44.155Z,4.32
2022-10-14T12:03:21.495Z,3.17
2022-10-14T12:05:59.667Z,3.88
2022-10-14T12:08:35.637Z,3.97
2022-10-14T12:11:11.100Z,3.78
2022-10-14T12:13:44.513Z,2.88
2022-10-14T12:16:18.329Z,3.47
2022-10-14T12:18:50.509Z,3.10
2022-10-14T12:21:25.468Z,3.17
2022-10-14T12:24:02.140Z,3.50
2022-10-14T12:26:49.748Z,3.45
2022-10-14T12:29:23.136Z,3.50
2022-10-14T12:32:08.218Z,4.00
2022-10-14T12:34:39.102Z,4.07
2022-10-14T12:37:51.383Z,3.75
2022-10-14T12:40:32.925Z,4.10
2022-10-14T12:43:23.581Z,4.93
2022-10-14T12:46:11.519Z,6.25
2022-10-14T12:48:50.468Z,3.97
2022-10-14T12:51:22.555Z,3.38
2022-10-14T12:54:06.255Z,3.72
2022-10-14T12:56:41.756Z,4.10
2022-10-14T12:59:25.598Z,4.10
2022-10-14T13:01:59.883Z,5.28
2022-10-14T13:04:30.451Z,4.35
2022-10-14T13:07:40.099Z,3.72
2022-10-14T13:10:47.151Z,3.92
2022-10-14T13:13:52.521Z,4.30
2022-10-14T13:17:27.574Z,4.05
2022-10-14T13:19:57.163Z,3.65
2022-10-14T13:22:43.516Z,4.03
2022-10-14T13:25:21.952Z,7.28
2022-10-14T13:28:22.198Z,10.70
2022-10-14T13:31:01.749Z,12.98
2022-10-14T13:33:42.261Z,9.13
2022-10-14T13:36:21.976Z,4.70
2022-10-14T13:38:59.107Z,4.78
2022-10-14T13:41:31.761Z,4.15
2022-10-14T13:44:02.170Z,3.85
2022-10-14T13:46:37.029Z,4.40
2022-10-14T13:51:49.707Z,4.07
2022-10-14T13:54:22.021Z,4.18
2022-10-14T13:57:42.635Z,4.18
2022-10-14T14:02:54.568Z,4.05
2022-10-14T14:05:27.753Z,3.72
2022-10-14T14:08:31.725Z,4.07
2022-10-14T14:11:17.791Z,4.10
2022-10-14T14:14:01.811Z,3.95
2022-10-14T14:16:35.414Z,4.75
2022-10-14T14:19:09.655Z,4.10
2022-10-14T14:21:40.398Z,4.03
2022-10-14T14:24:23.636Z,4.18
2022-10-14T14:26:55.424Z,4.05
2022-10-14T14:29:29.209Z,3.53
2022-10-14T14:32:08.234Z,3.83
2022-10-14T14:34:39.117Z,3.95
2022-10-14T14:40:02.057Z,4.05
2022-10-14T14:42:36.554Z,3.53
2022-10-14T14:45:13.699Z,3.25
2022-10-14T14:47:43.194Z,3.63
2022-10-14T14:50:31.969Z,3.95
2022-10-14T14:53:05.820Z,3.72
2022-10-14T14:55:45.329Z,3.60
2022-10-14T14:58:28.864Z,3.47
2022-10-14T15:00:57.957Z,3.30
2022-10-14T15:03:29.363Z,3.58
2022-10-14T15:06:01.385Z,4.13
2022-10-14T15:08:34.743Z,4.32
2022-10-14T15:11:08.989Z,4.40
2022-10-14T15:13:52.837Z,3.90
2022-10-14T15:16:35.671Z,3.78
2022-10-14T15:19:35.667Z,3.63
2022-10-14T15:22:29.536Z,3.63
2022-10-14T15:25:09.526Z,2.83
2022-10-14T15:27:53.626Z,2.50
2022-10-14T15:30:38.430Z,2.53
2022-10-14T15:33:19.577Z,2.50
2022-10-14T15:35:57.029Z,2.00
2022-10-14T15:38:26.628Z,2.03
2022-10-14T15:40:57.010Z,2.35
2022-10-14T15:43:27.578Z,2.50
2022-10-14T15:46:11.964Z,2.63
2022-10-14T15:48:47.879Z,2.53
2022-10-14T15:51:17.916Z,2.97
2022-10-14T15:53:48.023Z,3.35
2022-10-14T15:56:20.973Z,3.05
2022-10-14T15:58:49.908Z,3.20
2022-10-14T16:01:22.183Z,2.72
2022-10-14T16:03:52.524Z,2.75
2022-10-14T16:06:24.466Z,3.30
2022-10-14T16:08:53.087Z,2.85
2022-10-14T16:11:27.638Z,3.78
2022-10-14T16:13:56.794Z,3.03
2022-10-14T16:16:31.674Z,2.10
2022-10-14T16:19:02.410Z,1.88
2022-10-14T16:21:31.047Z,2.10
2022-10-14T16:23:59.775Z,1.80
2022-10-14T16:26:30.808Z,1.95
2022-10-14T16:29:03.321Z,1.67
2022-10-14T16:31:31.781Z,11.68
2022-10-14T16:34:01.797Z,12.38
2022-10-14T16:36:30.947Z,2.38
2022-10-14T16:39:00.550Z,2.00
2022-10-14T16:41:32.697Z,1.73
2022-10-14T16:44:02.042Z,1.70
2022-10-14T16:46:44.354Z,2.10
2022-10-14T16:49:12.884Z,2.00
2022-10-14T16:51:44.381Z,1.80
2022-10-14T16:54:13.744Z,1.67
2022-10-14T16:56:53.556Z,1.50
2022-10-14T16:59:22.928Z,1.50
2022-10-14T17:01:52.235Z,1.70
2022-10-14T17:04:20.871Z,1.70
2022-10-14T17:06:49.779Z,1.77
2022-10-14T17:09:20.880Z,1.88
2022-10-14T17:11:51.420Z,1.83
2022-10-14T17:14:24.129Z,2.00
2022-10-14T17:16:53.533Z,2.30
2022-10-14T17:19:23.940Z,1.88
2022-10-14T17:21:52.313Z,2.00
2022-10-14T17:24:23.726Z,2.10
2022-10-14T17:26:55.572Z,2.90
2022-10-14T17:29:24.205Z,2.70
2022-10-14T17:31:52.474Z,3.05
2022-10-14T17:34:21.014Z,4.57
2022-10-14T17:36:49.389Z,4.80
2022-10-14T17:39:25.882Z,7.07
2022-10-14T17:42:00.048Z,5.82
2022-10-14T17:44:29.665Z,4.65
2022-10-14T17:47:00.054Z,4.72
2022-10-14T17:49:31.249Z,3.97
2022-10-14T17:52:02.270Z,3.97
2022-10-14T17:54:31.249Z,4.65
2022-10-14T17:57:04.519Z,4.57
2022-10-14T17:59:35.109Z,3.90
2022-10-14T18:02:04.230Z,3.92
2022-10-14T18:04:33.556Z,5.38
2022-10-14T18:07:01.997Z,5.13
2022-10-14T18:09:30.418Z,3.97
2022-10-14T18:12:08.603Z,4.30
2022-10-14T18:14:38.442Z,3.47
2022-10-14T18:17:07.018Z,4.53
2022-10-14T18:19:36.037Z,4.28
2022-10-14T18:22:06.557Z,3.97
2022-10-14T18:24:38.514Z,3.58
2022-10-14T18:27:08.559Z,3.55
2022-10-14T18:29:38.122Z,3.63
2022-10-14T18:32:07.261Z,3.33
2022-10-14T18:34:35.788Z,3.58
2022-10-14T18:37:04.890Z,3.88
2022-10-14T18:39:33.382Z,3.60
2022-10-14T18:42:02.077Z,3.05
2022-10-14T18:44:31.790Z,3.75
2022-10-14T18:47:00.326Z,3.63
2022-10-14T18:49:29.907Z,3.25
2022-10-14T18:51:59.436Z,3.40
2022-10-14T18:54:28.203Z,3.42
2022-10-14T18:56:56.818Z,3.92
2022-10-14T18:59:26.340Z,3.78
2022-10-14T19:01:56.481Z,3.63
2022-10-14T19:04:28.058Z,3.80
2022-10-14T19:06:58.483Z,3.92
2022-10-14T19:09:30.124Z,3.95
2022-10-14T19:11:59.601Z,4.00
2022-10-14T19:14:31.724Z,4.00
2022-10-14T19:17:01.491Z,4.18
2022-10-14T19:19:29.843Z,4.53
2022-10-14T19:21:59.702Z,4.47
2022-10-14T19:24:28.410Z,6.85
2022-10-14T19:27:06.795Z,4.90
2022-10-14T19:29:35.087Z,4.63
2022-10-14T19:32:04.831Z,4.07
2022-10-14T19:34:35.865Z,3.97
2022-10-14T19:37:04.420Z,4.60
2022-10-14T19:39:33.135Z,3.95
2022-10-14T19:42:04.575Z,4.28
2022-10-14T19:47:02.311Z,3.80
2022-10-14T19:49:32.063Z,3.80
2022-10-14T19:52:00.850Z,4.32
2022-10-14T19:54:30.320Z,3.47
2022-10-14T19:56:58.791Z,3.22
2022-10-14T19:59:27.286Z,2.95
2022-10-14T20:01:56.118Z,2.95
2022-10-14T20:04:26.677Z,2.97
2022-10-14T20:06:58.060Z,2.90
2022-10-14T20:09:26.521Z,2.92
2022-10-14T20:11:55.283Z,2.70
2022-10-14T20:14:23.991Z,3.00
2022-10-14T20:16:55.175Z,2.75
2022-10-14T20:19:24.638Z,2.60
2022-10-14T20:21:53.075Z,2.70
2022-10-14T20:24:22.870Z,3.08
2022-10-14T20:26:52.902Z,2.53
2022-10-14T20:29:21.461Z,2.50
2022-10-14T20:31:49.728Z,3.13
2022-10-14T20:34:18.405Z,2.63
2022-10-14T20:36:46.703Z,2.47
2022-10-14T20:39:15.168Z,2.50
2022-10-14T20:41:45.031Z,2.17
2022-10-14T20:44:13.471Z,3.22
2022-10-14T20:46:41.837Z,2.40
2022-10-14T20:49:10.520Z,2.75
2022-10-14T20:51:39.300Z,2.20
2022-10-14T20:54:10.918Z,2.47
2022-10-14T20:56:40.335Z,1.88
2022-10-14T20:59:13.585Z,1.83
2022-10-14T21:01:42.106Z,1.95
2022-10-14T21:04:10.539Z,1.55
2022-10-14T21:06:41.171Z,1.95
2022-10-14T21:09:10.781Z,1.80
2022-10-14T21:11:39.406Z,2.30
2022-10-14T21:14:09.226Z,1.90
2022-10-14T21:16:39.894Z,2.47
2022-10-14T21:19:10.832Z,2.47
2022-10-14T21:21:42.590Z,2.80
2022-10-14T21:24:16.803Z,3.53
2022-10-14T21:26:49.055Z,2.80
2022-10-14T21:29:20.737Z,2.60
2022-10-14T21:31:50.499Z,2.95
2022-10-14T21:34:19.874Z,2.78
2022-10-14T21:36:48.485Z,2.97
2022-10-14T21:39:19.123Z,4.72
2022-10-14T21:41:47.872Z,6.78
2022-10-14T21:44:20.259Z,5.85
2022-10-14T21:46:49.650Z,5.00
2022-10-14T21:49:18.481Z,3.72
2022-10-14T21:51:46.798Z,3.08
2022-10-14T21:54:15.219Z,2.75
2022-10-14T21:56:43.784Z,3.60
2022-10-14T21:59:13.692Z,3.30
2022-10-14T22:01:44.289Z,2.50
2022-10-14T22:04:12.932Z,2.85
2022-10-14T22:06:42.163Z,2.50
2022-10-14T22:09:11.350Z,2.45
2022-10-14T22:11:42.219Z,2.42
2022-10-14T22:14:18.469Z,3.85
2022-10-14T22:16:49.220Z,2.92
2022-10-14T22:19:18.633Z,2.15
2022-10-14T22:21:47.448Z,2.08
2022-10-14T22:24:15.988Z,2.00
2022-10-14T22:26:45.443Z,1.55
2022-10-14T22:29:16.875Z,1.83
2022-10-14T22:31:47.674Z,2.28
2022-10-14T22:34:22.017Z,1.90
2022-10-14T22:36:50.354Z,2.10
2022-10-14T22:39:18.924Z,1.92
2022-10-14T22:41:47.565Z,2.08
2022-10-14T22:44:16.712Z,2.30
2022-10-14T22:46:45.610Z,1.95
2022-10-14T22:49:16.065Z,2.03
2022-10-14T22:51:45.274Z,2.28
2022-10-14T22:54:14.717Z,2.28
2022-10-14T22:56:43.292Z,2.25
2022-10-14T22:59:13.004Z,2.40
2022-10-14T23:01:43.704Z,1.90
2022-10-14T23:04:14.097Z,2.13
2022-10-14T23:06:44.899Z,2.00
2022-10-14T23:09:13.354Z,2.20
2022-10-14T23:11:44.924Z,2.10
2022-10-14T23:14:13.386Z,2.13
2022-10-14T23:16:49.800Z,2.22
2022-10-14T23:19:19.537Z,2.15
2022-10-14T23:21:47.954Z,2.67
2022-10-14T23:24:16.738Z,2.35
2022-10-14T23:26:46.171Z,2.25
2022-10-14T23:29:14.487Z,2.40
2022-10-14T23:31:43.248Z,2.00
2022-10-14T23:34:14.617Z,2.20
2022-10-14T23:36:44.607Z,1.80
2022-10-14T23:39:17.287Z,2.40
2022-10-14T23:41:45.892Z,2.08
2022-10-14T23:44:14.464Z,2.15
2022-10-14T23:46:42.909Z,2.20
2022-10-14T23:49:25.706Z,2.25
2022-10-14T23:51:56.782Z,1.90
2022-10-14T23:54:25.109Z,1.77
2022-10-14T23:56:53.564Z,1.77
2022-10-14T23:59:22.266Z,1.52
